createdAt,value
2023-04-26T00:02:19.616Z,71.29
2023-04-26T00:07:24.966Z,70.48
2023-04-26T00:12:26.795Z,71.02
2023-04-26T00:17:28.443Z,71.72
2023-04-26T00:22:30.093Z,71.52
2023-04-26T00:27:31.883Z,72.25
2023-04-26T00:32:35.416Z,72.63
2023-04-26T00:37:37.312Z,72.82
2023-04-26T00:42:39.844Z,73.01
2023-04-26T00:47:41.575Z,73.77
2023-04-26T00:52:43.631Z,74.08
2023-04-26T00:57:45.835Z,75.02
2023-04-26T01:02:47.562Z,75.51
2023-04-26T01:07:49.552Z,75.92
2023-04-26T01:12:51.888Z,76.59
2023-04-26T01:17:53.812Z,76.06
2023-04-26T01:22:55.944Z,76.16
2023-04-26T01:27:57.552Z,76.36
2023-04-26T01:33:00.186Z,76.21
2023-04-26T01:38:01.966Z,75.71
2023-04-26T01:43:03.637Z,75.78
2023-04-26T01:48:05.766Z,75.74
2023-04-26T01:53:07.747Z,76.43
2023-04-26T01:58:10.585Z,76.09
2023-04-26T02:03:12.337Z,75.64
2023-04-26T02:08:14.124Z,75.58
2023-04-26T02:13:15.810Z,75.54
2023-04-26T02:18:17.813Z,75.98
2023-04-26T02:23:19.473Z,76.17
2023-04-26T02:28:21.316Z,75.63
2023-04-26T02:33:23.264Z,75.40
2023-04-26T02:38:28.255Z,75.24
2023-04-26T02:43:30.208Z,75.44
2023-04-26T02:48:32.353Z,75.68
2023-04-26T02:53:34.302Z,75.70
2023-04-26T02:58:36.444Z,76.27
2023-04-26T03:03:44.566Z,76.83
2023-04-26T03:08:46.332Z,76.74
2023-04-26T03:13:47.970Z,76.85
2023-04-26T03:18:50.275Z,76.79
2023-04-26T03:23:52.183Z,77.25
2023-04-26T03:28:54.069Z,78.15
2023-04-26T03:33:55.944Z,78.55
2023-04-26T03:38:57.554Z,77.43
2023-04-26T03:43:59.860Z,77.48
2023-04-26T03:49:01.641Z,77.78
2023-04-26T03:54:04.261Z,78.23
2023-04-26T03:59:06.111Z,78.47
2023-04-26T04:04:08.427Z,78.63
2023-04-26T04:09:10.892Z,79.36
2023-04-26T04:14:12.662Z,79.15
2023-04-26T04:19:14.377Z,78.90
2023-04-26T04:24:17.390Z,78.67
2023-04-26T04:29:19.512Z,78.53
2023-04-26T04:34:23.809Z,77.97
2023-04-26T04:39:25.970Z,77.62
2023-04-26T04:44:27.838Z,76.89
2023-04-26T04:49:31.609Z,77.08
2023-04-26T04:54:33.527Z,75.55
2023-04-26T04:59:36.487Z,75.15
2023-04-26T05:04:39.386Z,74.19
2023-04-26T05:09:44.435Z,73.66
2023-04-26T05:14:50.806Z,72.87
2023-04-26T05:19:52.651Z,72.00
2023-04-26T05:24:54.323Z,70.74
2023-04-26T05:29:56.338Z,70.39
2023-04-26T05:35:13.348Z,68.07
2023-04-26T05:40:15.743Z,65.61
2023-04-26T05:45:17.693Z,63.27
2023-04-26T05:50:19.616Z,61.72
2023-04-26T05:55:21.557Z,60.81
2023-04-26T06:00:24.519Z,59.82
2023-04-26T06:05:26.554Z,60.69
2023-04-26T06:10:28.487Z,62.64
2023-04-26T06:15:31.781Z,62.00
2023-04-26T06:20:34.464Z,60.39
2023-04-26T06:25:37.260Z,60.54
2023-04-26T06:30:39.572Z,61.21
2023-04-26T06:35:42.576Z,60.25
2023-04-26T06:40:45.812Z,57.64
2023-04-26T06:45:48.314Z,57.70
2023-04-26T06:50:49.981Z,57.58
2023-04-26T06:55:53.516Z,56.38
2023-04-26T07:00:55.258Z,55.64
2023-04-26T07:05:56.894Z,56.89
2023-04-26T07:10:58.543Z,57.37
2023-04-26T07:16:00.298Z,56.96
2023-04-26T07:21:01.962Z,56.59
2023-04-26T07:26:04.494Z,55.26
2023-04-26T07:31:07.922Z,56.23
2023-04-26T07:36:10.516Z,54.87
2023-04-26T07:41:13.022Z,52.36
2023-04-26T07:46:14.946Z,55.49
2023-04-26T07:51:16.803Z,53.53
2023-04-26T07:56:18.769Z,52.77
2023-04-26T08:01:20.434Z,54.36
2023-04-26T08:06:22.659Z,55.89
2023-04-26T08:11:24.531Z,55.64
2023-04-26T08:16:26.283Z,53.77
2023-04-26T08:21:27.967Z,52.56
2023-04-26T08:26:29.624Z,52.21
2023-04-26T08:31:31.475Z,50.28
2023-04-26T08:36:36.753Z,51.92
2023-04-26T08:41:50.220Z,54.35
2023-04-26T08:47:17.872Z,51.83
2023-04-26T08:52:23.308Z,51.37
2023-04-26T08:57:25.764Z,48.05
2023-04-26T09:02:27.545Z,48.83
2023-04-26T09:07:33.181Z,48.72
2023-04-26T09:12:34.902Z,50.30
2023-04-26T09:17:38.630Z,50.00
2023-04-26T09:22:40.324Z,50.26
2023-04-26T09:27:43.458Z,50.81
2023-04-26T09:32:48.174Z,51.17
2023-04-26T09:38:03.380Z,48.23
2023-04-26T09:43:14.788Z,52.53
2023-04-26T09:48:17.559Z,53.80
2023-04-26T09:53:34.357Z,48.73
2023-04-26T09:59:05.618Z,49.26
2023-04-26T10:04:07.354Z,46.16
2023-04-26T10:09:09.782Z,42.55
2023-04-26T10:14:11.911Z,47.08
2023-04-26T10:19:13.878Z,49.55
2023-04-26T10:24:15.943Z,50.53
2023-04-26T10:29:18.043Z,50.00
2023-04-26T10:34:21.168Z,47.93
2023-04-26T10:39:23.382Z,47.82
2023-04-26T10:44:40.369Z,47.40
2023-04-26T10:49:46.886Z,46.49
2023-04-26T10:54:55.762Z,46.40
2023-04-26T11:00:16.853Z,46.88
2023-04-26T11:05:43.019Z,47.53
2023-04-26T11:11:08.947Z,45.34
2023-04-26T11:16:12.807Z,46.35
2023-04-26T11:21:18.199Z,46.18
2023-04-26T11:26:19.968Z,45.40
2023-04-26T11:31:22.228Z,44.64
2023-04-26T11:36:25.005Z,41.70
2023-04-26T11:41:26.922Z,42.10
2023-04-26T11:46:28.720Z,44.07
2023-04-26T11:51:31.811Z,47.28
2023-04-26T11:56:33.868Z,47.83
2023-04-26T12:01:35.530Z,49.36
2023-04-26T12:06:45.298Z,48.26
2023-04-26T12:11:57.478Z,47.32
2023-04-26T12:17:01.936Z,45.54
2023-04-26T12:22:04.404Z,46.00
2023-04-26T12:27:07.291Z,45.42
2023-04-26T12:32:09.089Z,45.75
2023-04-26T12:37:10.764Z,46.11
2023-04-26T12:42:12.415Z,46.03
2023-04-26T12:47:14.068Z,46.88
2023-04-26T12:52:15.761Z,46.38
2023-04-26T12:57:17.437Z,47.78
2023-04-26T13:02:19.314Z,46.80
2023-04-26T13:07:22.402Z,47.24
2023-04-26T13:12:24.228Z,44.84
2023-04-26T13:17:26.603Z,44.11
2023-04-26T13:22:28.295Z,42.95
2023-04-26T13:27:31.619Z,44.63
2023-04-26T13:32:33.657Z,44.18
2023-04-26T13:37:35.557Z,45.25
2023-04-26T13:42:37.863Z,46.40
2023-04-26T13:47:39.577Z,45.24
2023-04-26T13:52:41.973Z,45.69
2023-04-26T13:57:43.697Z,44.84
2023-04-26T14:02:45.719Z,45.36
2023-04-26T14:07:47.481Z,45.36
2023-04-26T14:12:49.188Z,43.24
2023-04-26T14:17:51.203Z,44.34
2023-04-26T14:22:52.898Z,43.34
2023-04-26T14:27:54.698Z,44.57
2023-04-26T14:32:56.687Z,45.63
2023-04-26T14:37:58.385Z,44.61
2023-04-26T14:43:00.125Z,44.51
2023-04-26T14:48:01.838Z,44.96
2023-04-26T14:53:03.525Z,44.95
2023-04-26T14:58:05.164Z,45.04
2023-04-26T15:03:06.895Z,45.52
2023-04-26T15:08:08.672Z,46.46
2023-04-26T15:13:10.339Z,46.75
2023-04-26T15:18:11.957Z,46.23
2023-04-26T15:23:13.883Z,45.98
2023-04-26T15:28:16.610Z,46.92
2023-04-26T15:33:19.903Z,46.87
2023-04-26T15:38:22.421Z,45.58
2023-04-26T15:43:24.066Z,47.08
2023-04-26T15:48:26.305Z,46.66
2023-04-26T15:53:27.930Z,46.02
2023-04-26T15:58:29.659Z,47.59
2023-04-26T16:03:32.178Z,47.43
2023-04-26T16:13:40.724Z,47.62
2023-04-26T16:18:43.896Z,48.98
2023-04-26T16:23:45.993Z,47.50
2023-04-26T16:28:49.787Z,47.52
2023-04-26T16:33:52.010Z,47.31
2023-04-26T16:38:56.699Z,47.34
2023-04-26T16:43:58.358Z,47.74
2023-04-26T16:48:59.987Z,48.32
2023-04-26T16:54:01.685Z,48.92
2023-04-26T16:59:03.377Z,49.66
2023-04-26T17:04:05.614Z,49.50
2023-04-26T17:09:08.701Z,49.23
2023-04-26T17:14:10.869Z,50.28
2023-04-26T17:19:12.805Z,50.09
2023-04-26T17:24:14.476Z,49.84
2023-04-26T17:29:16.123Z,50.07
2023-04-26T17:34:17.812Z,50.96
2023-04-26T17:39:19.445Z,50.63
2023-04-26T17:44:21.086Z,51.22
2023-04-26T17:49:25.650Z,51.66
2023-04-26T17:54:27.639Z,52.18
2023-04-26T17:59:29.269Z,52.39
2023-04-26T18:04:31.667Z,53.25
2023-04-26T18:09:33.886Z,52.92
2023-04-26T18:14:35.826Z,53.95
2023-04-26T18:19:37.692Z,54.02
2023-04-26T18:24:39.400Z,54.91
2023-04-26T18:29:41.472Z,55.36
2023-04-26T18:34:44.156Z,55.73
2023-04-26T18:39:45.976Z,55.78
2023-04-26T18:44:47.690Z,56.18
2023-04-26T18:49:49.314Z,56.37
2023-04-26T18:54:51.121Z,56.82
2023-04-26T18:59:57.303Z,57.92
2023-04-26T19:04:59.523Z,58.03
2023-04-26T19:10:01.359Z,59.02
2023-04-26T19:15:03.218Z,59.06
2023-04-26T19:20:10.951Z,59.15
2023-04-26T19:25:13.782Z,59.31
2023-04-26T19:30:15.485Z,59.84
2023-04-26T19:35:17.147Z,60.13
2023-04-26T19:40:18.855Z,60.46
2023-04-26T19:45:20.633Z,60.77
2023-04-26T19:50:22.356Z,61.67
2023-04-26T19:55:24.789Z,61.60
2023-04-26T20:00:30.208Z,61.74
2023-04-26T20:05:32.454Z,61.79
2023-04-26T20:10:34.436Z,62.06
2023-04-26T20:15:36.208Z,62.77
2023-04-26T20:20:37.870Z,63.26
2023-04-26T20:25:39.536Z,63.53
2023-04-26T20:30:41.491Z,64.25
2023-04-26T20:35:43.594Z,64.96
2023-04-26T20:40:45.224Z,65.41
2023-04-26T20:45:46.945Z,65.92
2023-04-26T20:50:48.626Z,67.24
2023-04-26T20:55:52.668Z,66.01
2023-04-26T21:00:55.621Z,64.23
2023-04-26T21:05:57.603Z,64.51
2023-04-26T21:10:59.233Z,63.72
2023-04-26T21:16:02.332Z,64.65
2023-04-26T21:21:04.112Z,65.53
2023-04-26T21:26:05.808Z,66.85
2023-04-26T21:31:07.901Z,68.23
2023-04-26T21:36:09.670Z,68.23
2023-04-26T21:41:11.397Z,68.16
2023-04-26T21:46:13.109Z,69.33
2023-04-26T21:51:14.823Z,69.61
2023-04-26T21:56:16.585Z,69.95
2023-04-26T22:01:18.326Z,69.66
2023-04-26T22:06:20.450Z,71.56
2023-04-26T22:11:22.269Z,71.19
2023-04-26T22:16:24.033Z,71.95
2023-04-26T22:21:26.774Z,70.71
2023-04-26T22:26:28.430Z,71.25
2023-04-26T22:31:30.123Z,71.14
2023-04-26T22:36:32.614Z,72.23
2023-04-26T22:41:34.338Z,72.04
2023-04-26T22:46:36.158Z,72.36
2023-04-26T22:51:37.780Z,72.11
2023-04-26T22:56:39.401Z,72.86
2023-04-26T23:01:41.206Z,72.62
2023-04-26T23:06:44.036Z,72.93
2023-04-26T23:11:46.191Z,72.87
2023-04-26T23:16:47.806Z,73.70
2023-04-26T23:21:49.447Z,73.09
2023-04-26T23:26:51.263Z,72.88
2023-04-26T23:31:52.885Z,71.90
2023-04-26T23:36:54.526Z,72.44
2023-04-26T23:41:56.211Z,71.87
2023-04-26T23:46:57.896Z,71.20
2023-04-26T23:51:59.622Z,71.66
2023-04-26T23:57:02.118Z,71.94
